Katl taf.

NOTAM KATL · Hartsfield-Jackson Atlanta International. 12:17 LT. 16m.

Katl taf. Things To Know About Katl taf.

katl 102152z 22013g22kt 10sm few060 few150 bkn200 bkn250 25/12 a2986 rmk ao2 slp105 t02500122 $ current weather conditions at katl. vfr 21:52:00 10-10-23. ... taf. katl 101952z 1020/1124 21013kt p6sm few050 sct150 sct250 fm110200 24004kt p6sm sct150 bkn250 fm112100 19006kt p6sm -ra bkn050 ovc100.KATL: Hartsfield - Jackson Atlanta International Airport Atlanta, Georgia, USA: GOING TO ATLANTA? Reserve a Hotel Room: ... TAF; KATL : 120737Z 1208/1312 09012KT 6SM -RA BR SCT007 OVC010 TEMPO 1209/1213 4SM RA BR OVC005 FM121300 08014G24KT P6SM SCT005 OVC008 FM121700 08012KT P6SM BKN020 …katl 102152z 22013g22kt 10sm few060 few150 bkn200 bkn250 25/12 a2986 rmk ao2 slp105 t02500122 $ current weather conditions at katl. vfr 21:52:00 10-10-23. ... taf. katl 101952z 1020/1124 21013kt p6sm few050 sct150 sct250 fm110200 24004kt p6sm sct150 bkn250 fm112100 19006kt p6sm -ra bkn050 ovc100.Visibility: 10 km. Clear sky. TAF: KATL 070930Z 0710/0812 32009KT P6SM SCT100 FM071100 33010G20KT P6SM SKC FM071500 33012G25KT P6SM SKC FM072200 33013KT P6SM SKC FM080100 33009KT P6SM SKC. Weather observations and forecasts of more than 4000 airports (METAR and TAF reports). AVIATION WEATHER CENTER TAF Text Data TAF Home Plot Data Board Info IDs: Format: Raw Decoded Include METAR Data at: 1604 UTC 08 Oct 2023 Page loaded: 16:04 UTC | 09:04 AM Pacific | 10:04 AM Mountain | 11:04 AM Central | 12:04 PM Eastern

TAF ; NOTAM ; History ; Airport ; Statistics ; Livestream Show on map Embed New ... KATL B) 2309120954 E) ATL TWY SG, SJ, TWY SC BTN TWY SJ1 AND TWY SG CLSD CANCELED September 12, 2023 05:54 - September 15, 2023 05:54 LT KATL · A6496/23. Active. 0.4 NM 6h.taf: katl 061944z 0620/0724 33007kt p6sm few040 bkn080 bkn100 fm062300 31007kt p6sm vcsh bkn040 tempo 0700/0703 4sm -shra bkn040 fm070600 33011kt p6sm sct250 fm071200 33013g25kt p6sm few250 Weather observations and forecasts of more than 4000 airports (METAR and TAF reports).METAR KATL 210354Z COR 30008G19KT 2 1/2SM TSRA BR BKN009 BKN016CB OVC035 22/21 A3000 RMK AO2 CIG 005V013 OCNL LTGIC OHD-NE TS OHD-NE MOV E P0001 T02170206 $. ... KATL - Hartsfield-Jackson Atlanta International METAR TAF. KFTY - Fulton County Executive/Charlie Brown Field ...

taf katl 121720z 121818 20012kt 5sm hz bkn030 fm2000 3sm tsra ovc025cb fm2200 33015g20kt p6sm bkn015 ovc040 becmg 0608 02008kt bkn 040 becmg 1012 00000kt p6sm clr= No, because the ceiling and visibility are forecast to be at or above 2,000 feet and 3 miles within 1 hour before to 1 hour after the ETA.

A METAR (METeorological Aerodrome Report) is an observation and provides information about the current weather. A TAF (Terminal Area Forecast) provides a forecast for a longer period, for example 8, 24 or 36 hours. Both are prepared for aviation and contain weather information that pilots need. A METAR is prepared by a meteorologist or ... taf; katl : 120737z 1208/1312 09012kt 6sm -ra br sct007 ovc010 tempo 1209/1213 4sm ra br ovc005 fm121300 08014g24kt p6sm sct005 ovc008 fm121700 08012kt p6sm bkn020 ...KATL TAF. Issued: 2:30 AM PDT. (in 9 hours). Tomorrow 3:00 AM - 8:00 AM PDT. Vis ... TAFs from nearby airports: KFTY TAF. 10 nm NW. Issued: 10:21 PM PDT. (in 5 ...A METAR (METeorological Aerodrome Report) is an observation and provides information about the current weather. A TAF (Terminal Area Forecast) provides a forecast for a longer period, for example 8, 24 or 36 hours. Both are prepared for aviation and contain weather information that pilots need. A METAR is prepared by a meteorologist or ...

Impacts TAF Board. TAF Home. Plot. Data. Board. Info. For situational awareness. Not to be used for flight planning purposes. IDs: KATL - Atlanta/Hartsfield I, GA, US. Issued at 1808 UTC 28 Jul 2023. Updated at 1834 UTC 28 Jul 2023. Potential Impact: None: Slight: Moderate: High: Time 1752Z 28/19Z 28/20Z 28/21Z 28/22Z 28/23Z

Temperature 16 °C Humidity 82 % Pressure 1015 hPa Visibility: 16.1 km Clear sky Change units METAR: KATL 070952Z 32009KT 10SM CLR 16/13 A2998 RMK AO2 SLP147 T01560128 $ Time: 06:47 (10:47 UTC) Forecast The report was made 1 hour and 17 minutes ago, at 09:30 UTC Forecast valid from 07 at 10 UTC to 08 at 12 UTC Wind 9 kt from the Northwest

NOTE: LAMP data beyond the time of the TAF data is denoted as LAMP in Type and colored magenta. Raw TAF KMSP 210900Z 2109/2212 14006KT P6SM FEW250 FM212000 15010KT P6SM FEW250 Raw METAR KMSP 210853Z 14004KT 10SM CLR 19/14 A3009 RMK AO2 SLP185 T01890144 52010 KMSP 210753Z 13003KT 10SM CLR 19/14 A3008 RMK AO2 SLP182 T01890144 KMSP 210653Z 15005KT 10SM CLR 19/14 A3007 RMK AO2 SLP179 T01940144 ... 1554 users online KATL Hartsfield - Jackson Atlanta International Airport Atlanta, Georgia, USA GOING TO ATLANTA? Reserve a Hotel Room FAA INFORMATION EFFECTIVE 05 OCTOBER 2023 Location Airport Operations Airport CommunicationsAtlanta Hartsfield-Jackson International Airport, (ATL/KATL), United States - View the latest KATL METAR reports to find out the current weather conditions ...KATL 122152Z 05015G19KT 10SM BKN022 OVC030 19/14 A2983 RMK AO2 SLP096 T01940144 $ Services; ... Terminal Area Forecast. KATL. RAW. Reported. Thu, 10/12 3:44 PM EDT.NOTE: LAMP data beyond the time of the TAF data is denoted as LAMP in Type and colored magenta. Raw TAF KSLC 080520Z 0806/0912 16005KT P6SM SKC FM081800 32007KT P6SM SKC FM090330 15007KT P6SM SKC Raw METAR KSLC 080754Z 14006KT 10SM CLR 13/06 A3018 RMK AO2 SLP182 T01280061 KSLC 080654Z 00000KT 10SM CLR 14/07 A3017 RMK AO2 SLP180 T01390072 402440100 KSLC 080554Z 17005KT 10SM CLR 13/08 A3017 RMK ...

NOTE: LAMP data beyond the time of the TAF data is denoted as LAMP in Type and colored magenta. Raw TAF KDEN 121739Z 1218/1324 30009KT P6SM SCT070 BKN100 FM121900 35015G22KT P6SM SCT070 BKN100 FM122300 36025G38KT P6SM VCSH SCT040 BKN060 OVC100 TEMPO 1223/1302 -SHRA BKN040 FM130400 36022G35KT P6SM VCSH BKN040 FM130800 35015G25KT P6SM BKN050 FM131300 01010KT P6SM SCT050 FM131600 01018G28KT P6SM ...taf rctp 251100z 2512/2618 05005kt 7000 sct004 bkn007 bkn020 tempo 2512/2518 16005kt 4000 ra br few003 bkn004 bkn020 tempo 2518/2524 24005kt 5000 ra sct005 bkn011 bkn030 tempo 2600/2606 04010kt sct008 bkn015 bkn030 becmg …KATL 120752Z 09010KT 8SM -RA BKN007 BKN015 OVC050 16/14 A2980 RMK AO2 SLP084 CIG 006V009 P0004 T01560139 $ Conditions at: KATL (ATLANTA , GA, US) observed 0752 UTC 12 October 2023 Temperature: 15.6°C (60°F) Dewpoint: 13.9°C (57°F) [RH = 90%] Pressure (altimeter): 29.80 inches Hg (1009.2 mb)Impacts TAF Board. TAF Home. Plot. Data. Board. Info. For situational awareness. Not to be used for flight planning purposes. IDs: KATL - Atlanta/Hartsfield I, GA, US. Issued at 0305 UTC 17 May 2023. Updated at 0410 UTC 17 May 2023. Potential Impact: None: Slight: Moderate: High: Time 0407Z 17/05Z 17/06Z 17/07Z 17/08Z 17/09Zlfpg 190330z auto 22009kt cavok 14/11 q1015 taf lfpg 182300z 1900/2006 25010kt cavok tx20/1915z tn13/1906z prob30 tempo 2003/2005 4000 br. ... katl 190252z 36004kt 10sm few250 23/13 a3004 rmk ao2 slp165 t02280128 51014 katl 190339z 1904/2006 35004kt p6sm skc fm191100 02003kt p6sm skc fm191500 10005kt p6sm skc fm191800 17006kt …KATL - Atlanta/Hartsfield I, GA, US Issued at 0345 UTC 02 Oct 2023 Updated at 0504 UTC 02 Oct 2023 Potential Impact None Slight Moderate High NOTE: LAMP data beyond the …

METAR Baton Rouge Metro, Ryan Field - KBTR/BTR. Baton Rouge Metro, Ryan Field is a midsized airport in Louisiana, United States. The airport is located at latitude 30.53285 and longitude -91.14926. The airport has 3 runways: 4L/22R, 4R/22L and 13/31.

METAR KATL 101752Z VRB04KT 10SM SCT045 SCT180 BKN250 27/15 A3011 RMK AO2 SLP187 T02720150 10278 20206 58006. There is little or no wind from a variable direction. Visibility is 10 mi. The ceiling, broken or more, is 25,000 ft. The temperature and wind chill are 27 °C.TAF ; NOTAM ; History ; Airport ; Statistics ; Livestream Show on map Embed New ... KATL B) 2309120954 E) ATL TWY SG, SJ, TWY SC BTN TWY SJ1 AND TWY SG CLSD CANCELED September 12, 2023 05:54 - September 15, 2023 05:54 LT KATL · A6496/23. Active. 0.4 NM 6h.NOTE: LAMP data beyond the time of the TAF data is denoted as LAMP in Type and colored magenta. Raw TAF. KAVL 190531Z 1906/2006 VRB02KT 6SM BR FEW250. FM190800 VRB03KT 1SM BR BKN006. TEMPO 1908/1912 1/2SM FG OVC003. FM191300 VRB03KT P6SM FEW060. FM191700 17006KT P6SM FEW060. FM200000 VRB02KT P6SM FEW060. Raw METAR. METAR KATL 221952Z VRB06KT 10SM SCT050 SCT070 27/13 A3006 RMK AO2 SLP171 MDT CU ALQDS T02670133. There is little or no wind from a variable direction. Visibility is 10 mi. ... METAR KPDK - Dekalb-Peachtree Airport (16 NM) METAR TAF KMGE - Dobbins Air Reserve Base (17 NM) METAR TAF. 22 September 15:52 LT …katl 071122z 0712/0818 31006kt p6sm bkn120 fm071400 33006kt p6sm sct035 sct250 fm071800 29008kt p6sm vcsh sct040 tempo 0720/0724 4sm tsra bkn025cb fm080200 30005kt ... taf mpto 071115z 0712/0818 26006kt 9999 sct016 sct080 tempo 0712/0715 03003kt prob40 tempo 0716/0720 13006kt 6000 tsra sct015cb bkn080 tempo 0800/0803 …Unicom. 122.95 MHz. Unicom. Warning: Do not use this data for real-world aviation or navigation. No guarantee of current accuracy is given. Airport information for Hartsfield-Jackson Atlanta Intl (KATL) in , including runways, map, navaids, weather (METAR/TAF) and ATC frequencies. For flight simulation use only. METAR history KATL · Hartsfield-Jackson Atlanta International Recent 2023 2022 2021 2020 2019 2018 2017 2016 2015 2014 2013 2012 2011 2010 2009 2008 2007 Select a date to see all historical METARs of Hartsfield …taf katl 121720z 121818 20012kt 5sm hz bkn030 fm2000 3sm tsra ovc025cb fm2200 33015g20kt p6sm bkn015 ovc040 becmg 0608 02008kt bkn 040 becmg 1012 00000kt p6sm clr= No, because the ceiling and visibility are forecast to be at or above 2,000 feet and 3 miles within 1 hour before to 1 hour after the ETA. NOTE: LAMP data beyond the time of the TAF data is denoted as LAMP in Type and colored magenta. Raw TAF KATL 120542Z 1206/1312 09012KT 5SM -RA BR SCT007 OVC010 TEMPO 1209/1213 4SM RA BR OVC005 FM121300 08014G24KT P6SM SCT005 OVC008 FM121700 08012KT P6SM BKN020 FM131000 08009KT P6SM VCSH SCT008 BKN012 Raw METAR KATL 120530Z 11011G19KT 4SM RA BR BKN008 OVC047 16/14 A2988 RMK AO2 P0025 T01560139 ...KATL AIRPORT DIAGRAM (APD) - FlightAware. Browse By State. Get Airport Information. Valid from 01-Oct-2023 to 29-Oct-2023. Always verify dates on each chart and consult appropriate NOTAMs. Ensure that all appropriate charts are included that are necessary for navigation. All data is published by FAA/NACO and is not warranted by FlightAware.

TAF for: KATL (Atlanta/Hartsfield I, GA, US) issued at 0332 UTC 15 Jun 2023: Text: KATL 150332Z 1504/1606 20007KT P6SM SCT007 BKN050 : Forecast period: 0400 to 0800 UTC 15 June 2023: Forecast type: FROM: standard forecast or significant change: Winds: from the SSW (200 degrees) at 8 MPH (7 knots; 3.6 m/s)

taf: katl 251125z 2512/2618 28003kt p6sm bkn250 fm251600 30006kt p6sm bkn200 fm260100 34003kt p6sm few080 bkn150 fm260700 03003kt p6sm sct080 bkn120 Weather observations and forecasts of more than 4000 airports (METAR and TAF reports).

taf: katl 251125z 2512/2618 28003kt p6sm bkn250 fm251600 30006kt p6sm bkn200 fm260100 34003kt p6sm few080 bkn150 fm260700 03003kt p6sm sct080 bkn120 Weather observations and forecasts of more than 4000 airports (METAR and TAF reports).Unicom. 122.95 MHz. Unicom. Warning: Do not use this data for real-world aviation or navigation. No guarantee of current accuracy is given. Airport information for Hartsfield-Jackson Atlanta Intl (KATL) in , including runways, map, navaids, weather (METAR/TAF) and ATC frequencies. For flight simulation use only. katl (0.8 nm at true heading of 240) metar: katl 141926z 15005kt 10sm few038 sct080 bkn140 bkn200 23/21 a2999 rmk ao2 ltg dsnt e-sw rae03 tse26 ts movd se cb dsnt e-s-sw tcu dsnt nw p0000 t02330206 taf: katl 141750z 1418/1524 08008kt p6sm vcsh bkn040 bkn150 tempo 1418/1422 01015g25kt 4sm tsra br ovc035cb fm150300 …View the flying weather (METAR and TAF) for Hartsfield-Jackson Atlanta International, Atlanta, United States. Hartsfield-Jackson Atlanta International KATL · Georgia, United States. Share Sign up Free! ... METAR KATL 180552Z 26003KT 5SM HZ FU CLR 24/18 A3006 RMK AO2 SLP169 T02440183 10311 20239 56003 : 00:52: V. 25 …Aeródromo: Hartsfield-Jackson Intl., Atlanta (KATL). Ubicación: · Último METAR. No hay metares registrados para este aeródromo · Último TAF. No hay tafs ...Raw TAF. KATL 051953Z 0520/0624 14006KT P6SM VCSH SCT040 SCT100. TEMPO 0521/0601 VRB15G25KT 4SM TSRA BKN035CB. FM060200 12005KT P6SM SCT040 SCT150. FM061100 11003KT P6SM FEW010 SCT025. FM061800 12006KT P6SM BKN035.A TAF (Terminal Area Forecast) is a weather forecast for a given area around the airport specified in the forecast. Therefore the main difference between the two is that METARs are a record of actual conditions where TAFs are a prediction of future weather. Another difference is that METARs may include a “remarks”(RMK) section.TAF for: KATL (Atlanta/Hartsfield I, GA, US) issued at 2326 UTC 01 Oct 2023: Text: KATL 012326Z 0200/0306 08007KT P6SM FEW050 SCT200 : Forecast period: 0000 to 0200 UTC 02 October 2023: Forecast type: FROM: standard forecast or significant change: Winds: from the E (80 degrees) at 8 MPH (7 knots; 3.6 m/s)

KATL: Hartsfield - Jackson Atlanta International Airport Atlanta, Georgia, USA: GOING TO ATLANTA? Reserve a Hotel Room: ... TAF; KATL : 120737Z 1208/1312 09012KT 6SM -RA BR SCT007 OVC010 TEMPO 1209/1213 4SM RA BR OVC005 FM121300 08014G24KT P6SM SCT005 OVC008 FM121700 08012KT P6SM BKN020 …vhhh 270530z 20010kt 170v230 9999 vcsh few015 sct030 32/25 q1003 nosig taf vhhh 270500z 2706/2812 vrb05kt 9999 few020 tx33/2706z tx32/2806z tn28/2722z tempo 2706/2709 26010kt 4000 shra few010cb sct020 tempo 2709/2718 12010kt tempo 2723/2805 3500 tsra shra few010cb sct020 tempo 2803/2809 26010kt. vmmc ...TAF for: KATL (Atlanta/Hartsfield I, GA, US) issued at 2326 UTC 01 Oct 2023: Text: KATL 012326Z 0200/0306 08007KT P6SM FEW050 SCT200 : Forecast period: 0000 to 0200 UTC 02 October 2023: Forecast type: FROM: standard forecast or significant change: Winds: from the E (80 degrees) at 8 MPH (7 knots; 3.6 m/s)Instagram:https://instagram. buoy 411102et to cstwooden roping dummyprovidence ascension patient portal Below are listed examples for each of the data API scripts. You can also use the API builder to construct your own requests. METARs. TAFs. PIREPs. AIRMET/SIGMET. Intl SIGMET. G-AIRMET. OCONUS FAs. loomian legacy calculator25 06 ballistics drop chart rcss 030300z 27003kt 230v300 9000 -dz few010 bkn025 bkn040 25/23 q1010 nosig rmk a2984 ra amt 0.2mm taf rcss 022300z 0300/0324 08005kt 9999 few015 bkn032 tempo 0300/0306 5000 shra few010 few015tcu bkn020 bkn040 tempo 0306/0312 08010kt 4000 shra ... katl 030252z 07009kt 10sm clr 23/14 a3018 rmk ao2 slp210 t02280139 51008 $ …KLAL 211235Z AUTO 01005KT 5SM BR OVC002 22/22 A3001 RMK AO2 T02220222. METAR Board. Radar Display. Forecast Discussion. For situational awareness. Not to be used for flight planning purposes. Aviation Weather Center Homepage provides comprehensive user-friendly aviation weather Text products and graphics. jpaycom KATL - Atlanta/Hartsfield I, GA, US Issued at 1125 UTC 05 Oct 2023 Updated at 1253 UTC 05 Oct 2023 Potential Impact None Slight Moderate High NOTE: LAMP data beyond the time of the TAF data is denoted as LAMP in Type and colored magenta. Raw TAF KATL 051125Z 0512/0618 08006KT P6SM SCT250 FM051700 12006KT P6SM FEW040 SCT250Impacts TAF Board. TAF Home. Plot. Data. Board. Info. For situational awareness. Not to be used for flight planning purposes. IDs: KATL - Atlanta/Hartsfield I, GA, US. Issued at 0933 UTC 22 Apr 2023. Updated at 1050 UTC 22 Apr 2023. Potential Impact: None: Slight: Moderate: High: Time <<22/23Z 23/00Z 23/01Z 23/02Z 23/03Z